Time;durP1;ratioP1;P1;durP2;ratioP2;P2;SDS_P1;SDS_P2;PMS_P1;PMS_P2;Temp;Humidity;BMP_temperature;BMP_pressure;BME280_temperature;BME280_humidity;BME280_pressure;Samples;Min_cycle;Max_cycle;Signal;HPM_P1;HPM_P2
2022/08/18 00:01:06;;;;;;;24.73;22.25;;;19.50;99.90;;;;;;5108845;28;20714;-50
2022/08/18 00:03:34;;;;;;;27.75;24.73;;;19.40;99.90;;;;;;5109061;28;20215;-50
2022/08/18 00:06:22;;;;;;;26.00;23.50;;;19.40;99.90;;;;;;5110030;28;20239;-51
2022/08/18 00:08:57;;;;;;;26.48;23.77;;;19.30;99.90;;;;;;5112961;28;20225;-51
2022/08/18 00:11:26;;;;;;;25.75;22.92;;;19.30;99.90;;;;;;5112945;28;20286;-50
2022/08/18 00:13:54;;;;;;;26.13;23.50;;;19.30;99.90;;;;;;5113175;28;20207;-50
2022/08/18 00:16:22;;;;;;;26.27;23.60;;;19.20;99.90;;;;;;5112834;28;20257;-51
2022/08/18 00:18:50;;;;;;;26.23;23.50;;;19.20;99.90;;;;;;5112813;28;20207;-50
2022/08/18 00:21:19;;;;;;;28.25;24.90;;;19.30;99.90;;;;;;5112915;28;20231;-51
2022/08/18 00:23:47;;;;;;;29.00;25.70;;;19.20;99.90;;;;;;5112652;28;20257;-51
2022/08/18 00:26:17;;;;;;;28.13;25.13;;;19.20;99.90;;;;;;5113018;28;20257;-50
2022/08/18 00:28:45;;;;;;;26.98;24.10;;;19.20;99.90;;;;;;5112200;28;20203;-50
2022/08/18 00:31:13;;;;;;;28.73;24.67;;;19.20;99.90;;;;;;5112007;28;20277;-50
2022/08/18 00:33:42;;;;;;;28.95;25.85;;;19.20;99.90;;;;;;5104607;28;20249;-50
2022/08/18 00:36:11;;;;;;;29.88;26.33;;;19.10;99.90;;;;;;5112610;28;20199;-50
2022/08/18 00:38:39;;;;;;;29.48;26.35;;;19.10;99.90;;;;;;5111793;28;20256;-50
2022/08/18 00:41:08;;;;;;;32.20;28.88;;;19.20;99.90;;;;;;5111568;28;20213;-50
2022/08/18 00:43:43;;;;;;;30.33;27.25;;;19.10;99.90;;;;;;5112236;28;20215;-50
2022/08/18 00:46:16;;;;;;;29.75;26.50;;;19.10;99.90;;;;;;5112496;28;20200;-50
2022/08/18 00:48:44;;;;;;;29.88;26.55;;;19.10;99.90;;;;;;5112091;28;20207;-50
2022/08/18 00:51:21;;;;;;;29.10;26.05;;;19.10;99.90;;;;;;5112127;28;20302;-50
2022/08/18 00:53:54;;;;;;;31.10;27.60;;;19.10;99.90;;;;;;5109701;27;20208;-50
2022/08/18 00:56:25;;;;;;;30.02;26.90;;;19.00;99.90;;;;;;5111225;28;20736;-50
2022/08/18 00:59:00;;;;;;;29.90;26.83;;;19.00;99.90;;;;;;5115903;27;20207;-50
2022/08/18 01:01:33;;;;;;;36.92;30.25;;;19.00;99.90;;;;;;5117386;27;20647;-50
2022/08/18 01:04:09;;;;;;;33.75;30.05;;;18.90;99.90;;;;;;5111798;27;20677;-50
2022/08/18 01:06:42;;;;;;;36.47;32.58;;;18.90;99.90;;;;;;5125503;27;20251;-50
2022/08/18 01:09:10;;;;;;;31.85;27.92;;;18.90;99.90;;;;;;5103900;27;20206;-50
2022/08/18 01:11:40;;;;;;;37.17;31.27;;;18.80;99.90;;;;;;5119785;27;20223;-50
2022/08/18 01:14:10;;;;;;;34.03;30.27;;;18.80;99.90;;;;;;5115477;27;20279;-50
2022/08/18 01:22:21;;;;;;;39.20;35.25;;;18.60;99.90;;;;;;5135101;27;20223;-51
2022/08/18 01:27:40;;;;;;;36.83;32.95;;;18.60;99.90;;;;;;5128823;27;20196;-50
2022/08/18 01:30:12;;;;;;;36.30;32.42;;;18.60;99.90;;;;;;5111307;28;20211;-50
2022/08/18 01:32:41;;;;;;;35.90;32.10;;;18.60;99.90;;;;;;5125500;27;20303;-51
2022/08/18 01:35:11;;;;;;;37.60;33.55;;;18.60;99.90;;;;;;5120664;27;20617;-51
2022/08/18 01:37:40;;;;;;;37.40;33.42;;;18.60;99.90;;;;;;5130682;27;20303;-51
2022/08/18 01:40:15;;;;;;;37.22;33.25;;;18.60;99.90;;;;;;5131780;27;20582;-51
2022/08/18 01:43:04;;;;;;;38.47;33.25;;;18.50;99.90;;;;;;5131748;27;20653;-50
2022/08/18 01:45:33;;;;;;;36.90;33.00;;;18.50;99.90;;;;;;5131976;27;20214;-50
2022/08/18 01:48:03;;;;;;;44.70;39.95;;;18.40;99.90;;;;;;5131990;27;20576;-50
2022/08/18 01:50:33;;;;;;;41.85;37.28;;;18.50;99.90;;;;;;5126101;27;20213;-51
2022/08/18 01:53:03;;;;;;;43.40;38.90;;;18.50;99.90;;;;;;5131602;27;20226;-51
2022/08/18 01:55:33;;;;;;;45.30;40.50;;;18.50;99.90;;;;;;5131303;27;20694;-51
2022/08/18 01:58:01;;;;;;;45.42;39.63;;;18.50;99.90;;;;;;5131447;27;20203;-51
2022/08/18 02:00:31;;;;;;;41.95;37.55;;;18.50;99.90;;;;;;5131551;27;20207;-51
2022/08/18 02:03:00;;;;;;;42.88;38.38;;;18.40;99.90;;;;;;5117453;27;20231;-51
2022/08/18 02:05:34;;;;;;;42.42;37.80;;;18.40;99.90;;;;;;5117193;27;20210;-50
2022/08/18 02:08:02;;;;;;;45.00;40.30;;;18.40;99.90;;;;;;5130703;27;20211;-51
2022/08/18 02:10:32;;;;;;;46.25;41.42;;;18.40;99.90;;;;;;5130575;27;20268;-51
2022/08/18 02:13:00;;;;;;;48.92;43.63;;;18.40;99.90;;;;;;5131268;27;20716;-50
2022/08/18 02:15:28;;;;;;;54.33;46.95;;;18.40;99.90;;;;;;5130985;27;20260;-50
2022/08/18 02:17:57;;;;;;;58.80;50.22;;;18.30;99.90;;;;;;5131126;27;20695;-51
2022/08/18 02:20:25;;;;;;;58.90;50.28;;;18.30;99.90;;;;;;5130613;27;20211;-50
2022/08/18 02:22:53;;;;;;;57.05;47.40;;;18.30;99.90;;;;;;5130769;27;20641;-50
2022/08/18 02:25:21;;;;;;;52.33;45.38;;;18.30;99.90;;;;;;5130462;27;20263;-50
2022/08/18 02:27:51;;;;;;;54.95;48.65;;;18.30;99.90;;;;;;5126806;27;20249;-51
2022/08/18 02:30:20;;;;;;;61.83;53.35;;;18.30;99.90;;;;;;5124345;27;20255;-51
2022/08/18 02:32:48;;;;;;;68.90;55.92;;;18.30;99.90;;;;;;5126398;27;20223;-50
2022/08/18 02:35:16;;;;;;;63.53;55.45;;;18.30;99.90;;;;;;5123217;27;20695;-51
2022/08/18 02:37:46;;;;;;;64.88;54.72;;;18.30;99.90;;;;;;5117921;27;20199;-50
2022/08/18 02:40:15;;;;;;;75.55;61.22;;;18.20;99.90;;;;;;5130447;27;20294;-50
2022/08/18 02:42:44;;;;;;;67.75;57.45;;;18.20;99.90;;;;;;5130171;27;20749;-51
2022/08/18 02:45:14;;;;;;;63.78;54.13;;;18.20;99.90;;;;;;5129966;27;20207;-51
2022/08/18 02:47:43;;;;;;;54.33;48.08;;;18.10;99.90;;;;;;5129801;27;20255;-50
2022/08/18 02:50:12;;;;;;;52.83;46.78;;;18.10;99.90;;;;;;5128027;27;20230;-50
2022/08/18 02:52:40;;;;;;;56.97;48.45;;;18.10;99.90;;;;;;5130419;27;20227;-50
2022/08/18 02:55:10;;;;;;;53.22;47.20;;;18.10;99.90;;;;;;5130271;27;20203;-50
2022/08/18 02:57:42;;;;;;;55.20;46.42;;;18.10;99.90;;;;;;5130811;27;20199;-50
2022/08/18 03:00:13;;;;;;;50.55;45.08;;;18.10;99.90;;;;;;5130412;27;20206;-50
2022/08/18 03:02:46;;;;;;;49.25;43.95;;;18.10;99.90;;;;;;5119024;27;20223;-51
2022/08/18 03:05:14;;;;;;;49.95;44.53;;;18.10;99.90;;;;;;5128274;27;20255;-50
2022/08/18 03:07:42;;;;;;;46.03;41.08;;;18.20;99.90;;;;;;5130269;27;20566;-50
2022/08/18 03:10:12;;;;;;;46.10;41.03;;;18.10;99.90;;;;;;5129029;27;20632;-51
2022/08/18 03:13:01;;;;;;;44.75;39.63;;;18.10;99.90;;;;;;5129870;28;20673;-50
2022/08/18 03:15:29;;;;;;;50.10;44.53;;;18.10;99.90;;;;;;5130065;28;20218;-50
2022/08/18 03:17:59;;;;;;;66.68;54.30;;;18.20;99.90;;;;;;5130414;28;20264;-50
2022/08/18 03:20:28;;;;;;;70.65;60.00;;;18.20;99.90;;;;;;5129620;28;20721;-51
2022/08/18 03:22:57;;;;;;;74.10;60.42;;;18.20;99.90;;;;;;5127800;28;20258;-50
2022/08/18 03:25:25;;;;;;;67.43;58.13;;;18.20;99.90;;;;;;5128789;28;20206;-51
2022/08/18 03:27:53;;;;;;;72.63;58.63;;;18.10;99.90;;;;;;5113852;28;20749;-50
2022/08/18 03:30:22;;;;;;;63.42;54.92;;;18.10;99.90;;;;;;5124608;28;20267;-50
2022/08/18 03:32:51;;;;;;;72.85;59.10;;;18.10;99.90;;;;;;5124492;28;20292;-50
2022/08/18 03:35:20;;;;;;;88.45;70.28;;;18.10;99.90;;;;;;5122418;28;20259;-51
2022/08/18 03:37:48;;;;;;;75.60;60.53;;;18.00;99.90;;;;;;5117139;28;20203;-50
2022/08/18 03:40:16;;;;;;;71.20;62.33;;;18.10;99.90;;;;;;5130290;27;20199;-50
2022/08/18 03:42:44;;;;;;;87.68;68.47;;;18.00;99.90;;;;;;5132731;27;20257;-51
2022/08/18 03:45:12;;;;;;;95.15;72.93;;;18.00;99.90;;;;;;5134167;27;20206;-50
2022/08/18 03:47:45;;;;;;;91.75;72.85;;;18.10;99.90;;;;;;5133811;27;20198;-50
2022/08/18 03:50:13;;;;;;;87.85;69.55;;;18.00;99.90;;;;;;5133958;27;20205;-50
2022/08/18 03:52:44;;;;;;;98.82;75.45;;;18.00;99.90;;;;;;5133450;27;20223;-50
2022/08/18 03:55:12;;;;;;;87.03;70.50;;;18.00;99.90;;;;;;5133458;27;20720;-50
2022/08/18 03:57:40;;;;;;;76.82;62.53;;;18.00;99.90;;;;;;5133479;27;20265;-50
2022/08/18 04:00:10;;;;;;;73.72;60.88;;;18.00;99.90;;;;;;5133402;27;20238;-50
2022/08/18 04:02:38;;;;;;;68.10;57.42;;;17.90;99.90;;;;;;5122401;27;20719;-50
2022/08/18 04:05:08;;;;;;;70.47;58.13;;;17.90;99.90;;;;;;5115972;27;20222;-50
2022/08/18 04:07:36;;;;;;;68.63;57.65;;;17.90;99.90;;;;;;5133612;27;20290;-50
2022/08/18 04:10:07;;;;;;;71.90;58.95;;;17.80;99.90;;;;;;5133236;27;20251;-50
2022/08/18 04:12:46;;;;;;;72.72;58.85;;;17.70;99.90;;;;;;5133364;27;20615;-50
2022/08/18 04:15:15;;;;;;;71.95;59.53;;;17.70;99.90;;;;;;5133671;27;20203;-50
2022/08/18 04:17:45;;;;;;;69.07;55.78;;;17.70;99.90;;;;;;5132905;27;20203;-50
2022/08/18 04:20:33;;;;;;;60.80;51.53;;;17.70;99.90;;;;;;5133505;27;20295;-51
2022/08/18 04:23:02;;;;;;;62.15;53.22;;;17.70;99.90;;;;;;5133093;27;20223;-50
2022/08/18 04:25:31;;;;;;;67.63;56.35;;;17.80;99.90;;;;;;5132627;27;20210;-50
2022/08/18 04:28:02;;;;;;;67.15;55.60;;;17.80;99.90;;;;;;5117498;27;20206;-50
2022/08/18 04:30:30;;;;;;;64.18;55.70;;;17.80;99.90;;;;;;5128578;27;20210;-50
2022/08/18 04:33:00;;;;;;;80.25;64.47;;;17.80;99.90;;;;;;5127026;27;20999;-50
2022/08/18 04:35:30;;;;;;;79.35;64.07;;;17.80;99.90;;;;;;5127529;27;20202;-51
2022/08/18 04:37:58;;;;;;;82.78;65.35;;;17.80;99.90;;;;;;5120176;27;20602;-50
2022/08/18 04:40:26;;;;;;;78.68;63.40;;;17.80;99.90;;;;;;5132389;27;20207;-51
2022/08/18 04:42:56;;;;;;;77.97;63.30;;;17.80;99.90;;;;;;5104341;27;20218;-52
2022/08/18 04:45:24;;;;;;;73.65;61.90;;;17.80;99.90;;;;;;5132341;27;20256;-51
2022/08/18 04:47:52;;;;;;;79.57;63.78;;;17.80;99.90;;;;;;5132664;27;20195;-51
2022/08/18 04:50:20;;;;;;;76.85;62.30;;;17.80;99.90;;;;;;5133015;27;20850;-51
2022/08/18 04:55:34;;;;;;;75.53;62.45;;;17.80;99.90;;;;;;5111957;28;20208;-51
2022/08/18 04:58:03;;;;;;;75.25;60.97;;;17.90;99.90;;;;;;5112336;28;20215;-51
2022/08/18 05:00:31;;;;;;;69.15;56.30;;;17.90;99.90;;;;;;5111897;28;20253;-52
2022/08/18 05:02:59;;;;;;;66.88;57.28;;;17.90;99.90;;;;;;5111877;28;20712;-51
2022/08/18 05:05:27;;;;;;;62.70;52.53;;;18.00;99.90;;;;;;5129005;27;20258;-51
2022/08/18 05:07:56;;;;;;;71.15;57.38;;;18.00;99.90;;;;;;5131825;27;20264;-52
2022/08/18 05:10:24;;;;;;;69.82;58.47;;;18.00;99.90;;;;;;5131665;27;20203;-51
2022/08/18 05:12:52;;;;;;;68.68;57.65;;;18.00;99.90;;;;;;5132375;27;20253;-51
2022/08/18 05:15:22;;;;;;;77.03;62.17;;;18.10;99.90;;;;;;5131953;27;20267;-51
2022/08/18 05:17:50;;;;;;;81.70;63.78;;;18.10;99.90;;;;;;5132009;27;20207;-52
2022/08/18 05:20:19;;;;;;;77.88;64.47;;;18.10;99.90;;;;;;5132162;27;20209;-51
2022/08/18 05:22:48;;;;;;;78.60;62.80;;;18.20;99.90;;;;;;5131409;27;20775;-51
2022/08/18 05:25:16;;;;;;;71.63;58.53;;;18.20;99.90;;;;;;5131364;27;20711;-52
2022/08/18 05:27:44;;;;;;;76.47;63.63;;;18.30;99.90;;;;;;5118542;27;20207;-51
2022/08/18 05:30:15;;;;;;;74.32;62.72;;;18.30;99.90;;;;;;5124979;27;20239;-51
2022/08/18 05:32:46;;;;;;;73.10;62.63;;;18.30;99.90;;;;;;5128321;27;20232;-52
2022/08/18 05:35:21;;;;;;;76.43;62.53;;;18.30;99.90;;;;;;5125252;27;20600;-50
2022/08/18 05:38:12;;;;;;;78.07;63.13;;;18.30;99.90;;;;;;5119244;27;20268;-51
2022/08/18 05:40:41;;;;;;;75.55;62.80;;;18.40;99.90;;;;;;5131372;27;20206;-51
2022/08/18 05:43:10;;;;;;;80.22;64.20;;;18.50;99.90;;;;;;5131822;27;20215;-51
2022/08/18 05:45:40;;;;;;;75.88;60.97;;;18.50;99.90;;;;;;5131677;27;20219;-54
2022/08/18 05:48:10;;;;;;;82.53;64.43;;;18.60;99.90;;;;;;5112036;27;20199;-51
2022/08/18 05:50:38;;;;;;;73.75;61.38;;;18.70;99.90;;;;;;5106959;28;20199;-51
2022/08/18 05:53:09;;;;;;;73.88;62.33;;;18.80;99.90;;;;;;5109999;28;20224;-51
2022/08/18 05:58:36;;;;;;;82.60;66.90;;;18.90;99.90;;;;;;5099253;28;20207;-51
2022/08/18 06:01:11;;;;;;;93.70;72.80;;;19.00;99.90;;;;;;5111067;28;20636;-50
2022/08/18 06:03:46;;;;;;;91.38;74.45;;;19.10;99.90;;;;;;5115131;27;20671;-51
2022/08/18 06:06:19;;;;;;;87.53;68.90;;;19.20;99.90;;;;;;5128579;27;20230;-51
2022/08/18 06:08:56;;;;;;;76.10;62.78;;;19.10;99.90;;;;;;5130328;27;20230;-51
2022/08/18 06:11:24;;;;;;;72.35;61.40;;;19.10;99.90;;;;;;5131696;27;20218;-52
2022/08/18 06:13:53;;;;;;;89.43;71.22;;;19.10;99.90;;;;;;5131405;27;20209;-51
2022/08/18 06:16:42;;;;;;;79.05;66.95;;;19.20;99.90;;;;;;5131543;27;20659;-50
2022/08/18 06:19:26;;;;;;;85.10;68.90;;;19.20;99.90;;;;;;5131280;27;20282;-51
2022/08/18 06:22:03;;;;;;;83.65;68.30;;;19.20;99.90;;;;;;5131385;27;21019;-50
2022/08/18 06:24:37;;;;;;;75.10;62.03;;;19.30;99.90;;;;;;5123250;27;20573;-51
2022/08/18 06:27:20;;;;;;;82.90;65.78;;;19.30;99.90;;;;;;5109437;28;20671;-51
2022/08/18 06:30:03;;;;;;;77.40;64.95;;;19.30;99.90;;;;;;5102810;28;20203;-51
2022/08/18 06:32:46;;;;;;;77.43;65.88;;;19.30;99.90;;;;;;5108841;28;20641;-51
2022/08/18 06:35:24;;;;;;;79.07;65.07;;;19.30;99.90;;;;;;5096977;27;20621;-51
2022/08/18 06:40:47;;;;;;;77.03;63.83;;;19.30;99.90;;;;;;5106833;28;20196;-51
2022/08/18 06:43:16;;;;;;;77.38;63.30;;;19.40;99.90;;;;;;5109553;28;20226;-52
2022/08/18 06:45:50;;;;;;;85.25;65.55;;;19.50;99.90;;;;;;5109465;28;20241;-51
2022/08/18 06:48:29;;;;;;;73.65;63.47;;;19.50;99.90;;;;;;5111190;28;20267;-51
2022/08/18 06:51:31;;;;;;;76.88;64.32;;;19.50;99.90;;;;;;5109558;28;20237;-50
2022/08/18 06:54:07;;;;;;;73.35;62.28;;;19.50;99.90;;;;;;5109213;28;20264;-51
2022/08/18 06:56:48;;;;;;;72.40;62.38;;;19.60;99.90;;;;;;5109902;28;20199;-51
2022/08/18 06:59:23;;;;;;;74.45;64.05;;;19.70;99.90;;;;;;5109596;28;20637;-51
2022/08/18 07:01:54;;;;;;;72.00;62.65;;;19.70;99.90;;;;;;5109884;28;20248;-51
2022/08/18 07:04:41;;;;;;;74.78;63.65;;;19.80;99.90;;;;;;5120504;27;20210;-51
2022/08/18 07:07:17;;;;;;;77.82;65.22;;;19.80;99.90;;;;;;5129662;27;20243;-51
2022/08/18 07:09:46;;;;;;;71.53;61.35;;;19.80;99.90;;;;;;5129890;27;20198;-51
2022/08/18 07:12:21;;;;;;;72.93;60.97;;;19.80;99.90;;;;;;5130254;27;20276;-51
2022/08/18 07:14:51;;;;;;;79.00;65.10;;;19.90;99.90;;;;;;5130229;28;20735;-50
2022/08/18 07:17:24;;;;;;;76.22;63.53;;;20.00;99.90;;;;;;5136750;27;20213;-51
2022/08/18 07:20:19;;;;;;;77.00;65.90;;;20.00;99.90;;;;;;5137089;27;20207;-51
2022/08/18 07:22:58;;;;;;;81.95;67.40;;;20.00;99.90;;;;;;5137182;27;20222;-51
2022/08/18 07:25:37;;;;;;;81.85;68.38;;;20.10;99.90;;;;;;5136515;27;20261;-51
2022/08/18 07:28:06;;;;;;;79.72;69.30;;;20.20;99.90;;;;;;5120291;27;20199;-50
2022/08/18 07:30:36;;;;;;;85.28;70.10;;;20.30;99.90;;;;;;5133088;27;20243;-51
2022/08/18 07:33:13;;;;;;;89.18;72.85;;;20.40;99.90;;;;;;5130012;27;20227;-51
2022/08/18 07:35:48;;;;;;;81.15;68.00;;;20.50;99.90;;;;;;5132303;27;20198;-51
2022/08/18 07:38:25;;;;;;;85.28;72.13;;;20.60;99.90;;;;;;5126418;27;20239;-52
2022/08/18 07:41:15;;;;;;;84.82;70.45;;;20.70;99.90;;;;;;5116083;27;20225;-51
2022/08/18 07:43:53;;;;;;;82.72;68.47;;;20.70;99.90;;;;;;5116001;27;20829;-51
2022/08/18 07:46:28;;;;;;;83.55;69.25;;;20.90;99.90;;;;;;5116441;28;20307;-51
2022/08/18 07:48:58;;;;;;;80.70;68.53;;;21.10;99.90;;;;;;5116143;27;20207;-51
2022/08/18 07:51:43;;;;;;;77.63;68.10;;;21.10;99.90;;;;;;5116065;27;20223;-51
2022/08/18 07:54:22;;;;;;;78.13;66.95;;;21.20;99.90;;;;;;5115961;28;20231;-51
2022/08/18 07:57:17;;;;;;;77.30;67.75;;;21.30;99.90;;;;;;5116041;28;20231;-51
2022/08/18 07:59:53;;;;;;;77.70;64.97;;;21.30;99.90;;;;;;5115644;27;20207;-51
2022/08/18 08:02:34;;;;;;;79.65;67.68;;;21.50;99.90;;;;;;5116107;28;20252;-51
2022/08/18 08:05:14;;;;;;;83.55;69.55;;;21.50;99.90;;;;;;5132211;27;20199;-50
2022/08/18 08:07:49;;;;;;;87.20;69.55;;;21.70;99.90;;;;;;5136672;27;20686;-51
2022/08/18 08:10:30;;;;;;;83.70;70.63;;;21.80;99.90;;;;;;5135967;27;20667;-50
2022/08/18 08:13:07;;;;;;;86.90;74.50;;;21.80;99.90;;;;;;5136755;27;20226;-51
2022/08/18 08:15:45;;;;;;;88.55;73.85;;;21.80;99.90;;;;;;5136873;27;20551;-51
2022/08/18 08:18:21;;;;;;;82.10;71.55;;;21.80;99.90;;;;;;5136157;27;20199;-51
2022/08/18 08:20:53;;;;;;;83.45;69.97;;;21.80;99.90;;;;;;5136065;27;20202;-50
2022/08/18 08:23:29;;;;;;;78.68;68.28;;;21.90;99.90;;;;;;5123279;27;20311;-51
2022/08/18 08:26:23;;;;;;;74.85;66.10;;;21.90;99.90;;;;;;5119997;27;20218;-51
2022/08/18 08:29:07;;;;;;;72.95;63.40;;;22.00;99.90;;;;;;5117479;27;20561;-51
2022/08/18 08:31:43;;;;;;;72.85;64.22;;;22.10;99.90;;;;;;5132972;27;20230;-51
2022/08/18 08:34:16;;;;;;;72.20;61.28;;;22.10;99.90;;;;;;5121413;27;20567;-51
2022/08/18 08:36:46;;;;;;;70.72;61.35;;;22.00;99.90;;;;;;5123548;27;20204;-51
2022/08/18 08:39:20;;;;;;;67.22;58.97;;;21.90;99.90;;;;;;5130094;27;20723;-51
2022/08/18 08:41:54;;;;;;;68.68;58.88;;;22.00;99.90;;;;;;5133346;27;20256;-51
2022/08/18 08:44:48;;;;;;;55.83;49.85;;;22.00;99.90;;;;;;5132724;27;20214;-51
2022/08/18 08:47:31;;;;;;;55.75;48.85;;;22.00;99.90;;;;;;5132192;27;20617;-51
2022/08/18 08:50:03;;;;;;;55.17;49.15;;;21.90;99.90;;;;;;5114323;27;20204;-51
2022/08/18 08:52:38;;;;;;;55.05;49.13;;;21.90;99.90;;;;;;5111614;28;20585;-51
2022/08/18 08:55:10;;;;;;;61.88;51.72;;;22.00;99.90;;;;;;5110875;28;20249;-51
2022/08/18 08:57:50;;;;;;;56.33;48.40;;;22.00;99.90;;;;;;5111548;28;20199;-51
2022/08/18 09:00:20;;;;;;;54.33;46.70;;;22.00;99.90;;;;;;5111328;28;20207;-51
2022/08/18 09:03:01;;;;;;;51.25;45.05;;;22.00;99.90;;;;;;5112100;28;20732;-51
2022/08/18 09:05:35;;;;;;;47.42;42.40;;;21.90;99.90;;;;;;5103758;27;20203;-52
2022/08/18 09:08:31;;;;;;;51.28;45.83;;;21.90;99.90;;;;;;5132722;27;20632;-51
2022/08/18 09:11:48;;;;;;;50.80;45.30;;;21.90;99.90;;;;;;5132057;27;20260;-51
2022/08/18 09:14:47;;;;;;;48.00;42.75;;;21.90;99.90;;;;;;5108801;27;20203;-51
2022/08/18 09:17:50;;;;;;;48.28;43.08;;;21.90;99.90;;;;;;5119985;27;21035;-51
2022/08/18 09:20:39;;;;;;;50.67;43.53;;;21.90;99.90;;;;;;5093459;28;20355;-52
2022/08/18 09:23:10;;;;;;;48.30;42.80;;;21.90;99.90;;;;;;5111050;28;20223;-50
2022/08/18 09:25:49;;;;;;;49.63;43.38;;;22.00;99.90;;;;;;5110997;28;20211;-51
2022/08/18 09:28:19;;;;;;;48.17;43.00;;;22.00;99.90;;;;;;5102473;28;20196;-51
2022/08/18 09:31:13;;;;;;;48.30;43.05;;;22.10;99.90;;;;;;5111115;28;20203;-51
2022/08/18 09:34:07;;;;;;;49.88;43.22;;;22.20;99.90;;;;;;5110428;28;20214;-51
2022/08/18 09:36:53;;;;;;;49.20;43.83;;;22.20;99.90;;;;;;5102617;28;20214;-51
2022/08/18 09:42:32;;;;;;;40.15;36.03;;;22.30;99.90;;;;;;5105957;28;20723;-52
2022/08/18 09:45:51;;;;;;;36.67;32.78;;;22.30;99.90;;;;;;5110539;28;20207;-51
2022/08/18 09:48:30;;;;;;;35.38;31.65;;;22.40;99.90;;;;;;5104184;28;20827;-51
2022/08/18 09:51:40;;;;;;;36.70;31.80;;;22.50;99.90;;;;;;5106729;28;20199;-51
2022/08/18 09:54:13;;;;;;;34.05;30.55;;;22.60;99.90;;;;;;5109911;28;20235;-51
2022/08/18 09:57:23;;;;;;;34.58;30.85;;;22.70;99.90;;;;;;5110629;28;20199;-52
2022/08/18 10:00:15;;;;;;;37.17;33.17;;;22.80;99.90;;;;;;5109649;28;20196;-51
2022/08/18 10:03:12;;;;;;;32.75;29.42;;;22.90;99.90;;;;;;5110007;28;20923;-51
2022/08/18 10:05:57;;;;;;;32.05;28.85;;;23.00;99.90;;;;;;5118243;27;20203;-51
2022/08/18 10:09:10;;;;;;;34.25;30.77;;;23.10;99.90;;;;;;5130813;27;20207;-51
2022/08/18 10:12:08;;;;;;;29.48;26.38;;;23.30;99.90;;;;;;5076545;28;20235;-51
2022/08/18 10:14:58;;;;;;;27.10;24.40;;;23.40;99.90;;;;;;5105686;28;20227;-51
2022/08/18 10:17:44;;;;;;;27.77;24.92;;;23.40;99.90;;;;;;5109792;28;20206;-51
2022/08/18 10:20:26;;;;;;;26.85;24.02;;;23.50;99.90;;;;;;5110791;28;20195;-52
2022/08/18 10:22:56;;;;;;;33.65;30.17;;;23.60;99.90;;;;;;5110367;28;20227;-52
2022/08/18 10:25:35;;;;;;;33.83;30.42;;;23.70;99.90;;;;;;5109160;28;20921;-51
2022/08/18 10:28:04;;;;;;;30.25;27.15;;;23.60;99.90;;;;;;5109256;28;20359;-51
2022/08/18 10:31:02;;;;;;;28.48;25.73;;;23.60;99.90;;;;;;5110276;28;20211;-51
2022/08/18 10:34:08;;;;;;;32.67;29.30;;;23.70;99.90;;;;;;5104129;28;20291;-51
2022/08/18 10:36:51;;;;;;;42.10;37.70;;;23.80;99.90;;;;;;5109883;28;20200;-51
2022/08/18 10:39:23;;;;;;;42.15;37.55;;;23.90;99.90;;;;;;5109610;28;20211;-53
2022/08/18 10:42:03;;;;;;;45.15;40.13;;;24.00;99.90;;;;;;5108838;28;20228;-50
2022/08/18 10:44:41;;;;;;;46.38;40.25;;;24.00;99.90;;;;;;5108343;28;20207;-51
2022/08/18 10:47:20;;;;;;;45.47;40.55;;;24.00;99.90;;;;;;5108041;28;20223;-51
2022/08/18 10:50:02;;;;;;;45.28;39.03;;;24.00;99.90;;;;;;5108067;28;20204;-52
2022/08/18 10:52:50;;;;;;;42.97;38.33;;;24.10;99.90;;;;;;5095815;28;20704;-51
2022/08/18 10:55:41;;;;;;;40.25;35.45;;;24.20;99.90;;;;;;5109486;28;20256;-51
2022/08/18 10:59:06;;;;;;;36.45;32.75;;;24.30;99.90;;;;;;5109493;28;20752;-52
2022/08/18 11:02:06;;;;;;;32.85;29.48;;;24.20;99.90;;;;;;5101716;28;20272;-51
2022/08/18 11:04:41;;;;;;;35.53;31.65;;;24.30;99.90;;;;;;5121845;27;20271;-51
2022/08/18 11:07:13;;;;;;;36.60;32.80;;;24.40;99.90;;;;;;5130810;27;20214;-53
2022/08/18 11:09:48;;;;;;;35.50;31.73;;;24.30;99.90;;;;;;5100493;27;20679;-51
2022/08/18 11:12:51;;;;;;;34.47;30.98;;;24.30;99.90;;;;;;5099957;28;20321;-51
2022/08/18 11:15:24;;;;;;;30.90;27.85;;;24.20;99.90;;;;;;5108196;28;20218;-50
2022/08/18 11:18:01;;;;;;;23.45;21.15;;;24.30;99.90;;;;;;5109330;28;20204;-52
2022/08/18 11:20:32;;;;;;;24.05;21.58;;;24.30;99.90;;;;;;5109930;28;20206;-50
2022/08/18 11:23:02;;;;;;;25.88;23.27;;;24.30;99.90;;;;;;5109139;28;20305;-52
2022/08/18 11:25:32;;;;;;;23.75;21.45;;;24.30;99.90;;;;;;5109685;28;20203;-50
2022/08/18 11:28:02;;;;;;;25.50;22.83;;;24.40;99.90;;;;;;5109042;28;20223;-52
2022/08/18 11:30:35;;;;;;;25.77;23.17;;;24.40;99.90;;;;;;5109447;28;20260;-51
2022/08/18 11:33:05;;;;;;;23.42;20.95;;;24.50;99.90;;;;;;5109054;28;20289;-50
2022/08/18 11:35:46;;;;;;;22.60;20.30;;;24.40;99.90;;;;;;5109054;28;20207;-50
2022/08/18 11:38:15;;;;;;;23.50;21.20;;;24.40;99.90;;;;;;5106297;28;20192;-51
2022/08/18 11:41:15;;;;;;;23.40;21.00;;;24.40;99.90;;;;;;5108399;28;20290;-51
2022/08/18 11:43:47;;;;;;;22.63;20.38;;;24.30;99.90;;;;;;5102160;28;20552;-51
2022/08/18 11:46:26;;;;;;;21.40;19.40;;;24.30;99.90;;;;;;5109322;28;20203;-51
2022/08/18 11:49:00;;;;;;;19.48;17.58;;;24.30;99.90;;;;;;5109571;28;20231;-51
2022/08/18 11:51:30;;;;;;;20.42;18.50;;;24.20;99.90;;;;;;5109304;28;20219;-51
2022/08/18 11:54:21;;;;;;;21.33;19.23;;;24.20;99.90;;;;;;5109557;28;20291;-51
2022/08/18 11:56:51;;;;;;;20.77;18.75;;;24.20;99.90;;;;;;5110513;28;20215;-51
2022/08/18 11:59:34;;;;;;;21.02;19.08;;;24.30;99.90;;;;;;5112169;28;20207;-50
2022/08/18 12:02:25;;;;;;;21.75;19.55;;;24.30;99.90;;;;;;5111986;28;20314;-52
2022/08/18 12:04:59;;;;;;;22.73;20.50;;;24.30;99.90;;;;;;5128611;27;20251;-52
2022/08/18 12:07:36;;;;;;;22.90;20.70;;;24.40;99.90;;;;;;5133494;27;20235;-51
2022/08/18 12:10:20;;;;;;;23.83;21.52;;;24.50;99.90;;;;;;5132768;27;20610;-51
2022/08/18 12:12:58;;;;;;;25.20;22.45;;;24.60;99.90;;;;;;5133710;27;20230;-51
2022/08/18 12:15:47;;;;;;;23.25;21.05;;;24.60;99.90;;;;;;5133584;27;20633;-51
2022/08/18 12:18:18;;;;;;;23.77;21.25;;;24.60;99.90;;;;;;5133242;27;20211;-52
2022/08/18 12:20:57;;;;;;;21.42;19.40;;;24.50;99.90;;;;;;5133379;27;20210;-52
2022/08/18 12:23:26;;;;;;;35.72;31.92;;;24.50;99.90;;;;;;5132473;27;20676;-52
2022/08/18 12:26:06;;;;;;;41.75;37.17;;;24.40;99.90;;;;;;5107642;27;20202;-52
2022/08/18 12:28:54;;;;;;;46.72;41.85;;;24.30;99.90;;;;;;5122438;27;20318;-52
2022/08/18 12:31:29;;;;;;;54.80;49.00;;;24.20;99.90;;;;;;5132825;27;20599;-51
2022/08/18 12:34:14;;;;;;;55.20;48.28;;;24.10;99.90;;;;;;5121707;27;20199;-51
2022/08/18 12:36:45;;;;;;;60.50;52.80;;;23.90;99.90;;;;;;5112882;27;20230;-51
2022/08/18 12:39:13;;;;;;;56.53;49.38;;;23.80;99.90;;;;;;5108674;28;20244;-54
2022/08/18 12:41:41;;;;;;;54.17;48.22;;;23.80;99.90;;;;;;5110925;28;20234;-52
2022/08/18 12:44:10;;;;;;;68.55;56.45;;;23.90;99.90;;;;;;5111822;28;20672;-51
2022/08/18 12:46:42;;;;;;;65.40;54.92;;;24.00;99.90;;;;;;5105307;27;20211;-51
2022/08/18 12:49:15;;;;;;;64.88;56.50;;;24.00;99.90;;;;;;5109805;28;20272;-51
2022/08/18 12:51:43;;;;;;;65.55;56.38;;;24.00;99.90;;;;;;5109619;28;20231;-52
2022/08/18 12:54:17;;;;;;;62.05;53.53;;;24.00;99.90;;;;;;5110227;28;20204;-51
2022/08/18 12:56:50;;;;;;;62.70;54.80;;;24.10;99.90;;;;;;5110304;28;20219;-52
2022/08/18 12:59:18;;;;;;;66.45;57.08;;;24.10;99.90;;;;;;5110770;28;20711;-51
2022/08/18 13:01:48;;;;;;;66.82;57.53;;;24.20;99.90;;;;;;5109525;28;20284;-51
2022/08/18 13:04:16;;;;;;;63.40;55.00;;;24.30;99.90;;;;;;5102184;27;20618;-52
2022/08/18 13:06:49;;;;;;;62.25;52.85;;;24.40;99.90;;;;;;5107713;27;20313;-52
2022/08/18 13:09:29;;;;;;;62.22;53.08;;;24.50;99.90;;;;;;5130916;27;20312;-52
2022/08/18 13:12:18;;;;;;;55.47;47.92;;;24.60;99.90;;;;;;5121072;27;20262;-51
2022/08/18 13:14:48;;;;;;;43.40;38.65;;;24.90;99.90;;;;;;5131240;27;20235;-52
2022/08/18 13:17:19;;;;;;;48.15;42.33;;;25.00;99.90;;;;;;5131207;27;20203;-51
2022/08/18 13:20:02;;;;;;;45.88;41.00;;;25.10;99.90;;;;;;5132107;27;20206;-51
2022/08/18 13:22:31;;;;;;;43.00;38.35;;;25.10;99.90;;;;;;5103078;27;20606;-52
2022/08/18 13:25:01;;;;;;;45.63;40.53;;;25.30;99.90;;;;;;5130840;27;20206;-52
2022/08/18 13:27:31;;;;;;;48.13;41.20;;;25.40;99.90;;;;;;5129427;27;20293;-52
2022/08/18 13:30:02;;;;;;;44.72;40.03;;;25.30;99.90;;;;;;5111120;28;20247;-50